sensor_id;sensor_type;location;lat;lon;timestamp;P1;P2;P0
12246;PMS7003;6186;52.022;4.692;2022-10-18T00:00:29;7.00;6.25;3.75
12246;PMS7003;6186;52.022;4.692;2022-10-18T00:02:54;8.75;6.25;3.25
12246;PMS7003;6186;52.022;4.692;2022-10-18T00:05:19;8.00;8.00;4.00
12246;PMS7003;6186;52.022;4.692;2022-10-18T00:07:44;7.25;7.00;3.25
12246;PMS7003;6186;52.022;4.692;2022-10-18T00:10:10;8.00;7.00;4.00
12246;PMS7003;6186;52.022;4.692;2022-10-18T00:12:35;8.00;7.00;4.00
12246;PMS7003;6186;52.022;4.692;2022-10-18T00:15:05;6.40;6.00;4.00
12246;PMS7003;6186;52.022;4.692;2022-10-18T00:17:32;6.80;6.20;3.00
12246;PMS7003;6186;52.022;4.692;2022-10-18T00:19:57;6.60;6.40;3.80
12246;PMS7003;6186;52.022;4.692;2022-10-18T00:22:23;7.00;6.00;3.00
12246;PMS7003;6186;52.022;4.692;2022-10-18T00:24:49;6.80;6.00;3.00
12246;PMS7003;6186;52.022;4.692;2022-10-18T00:27:14;6.75;6.25;3.25
12246;PMS7003;6186;52.022;4.692;2022-10-18T00:29:39;6.75;6.25;4.00
12246;PMS7003;6186;52.022;4.692;2022-10-18T00:32:04;7.50;7.00;4.00
12246;PMS7003;6186;52.022;4.692;2022-10-18T00:34:30;7.75;7.25;4.25
12246;PMS7003;6186;52.022;4.692;2022-10-18T00:36:55;6.75;6.00;3.50
12246;PMS7003;6186;52.022;4.692;2022-10-18T00:39:20;7.75;6.00;3.00
12246;PMS7003;6186;52.022;4.692;2022-10-18T00:41:46;8.25;6.50;3.50
12246;PMS7003;6186;52.022;4.692;2022-10-18T00:46:37;8.00;8.00;3.80
12246;PMS7003;6186;52.022;4.692;2022-10-18T00:49:08;6.00;6.00;3.00
12246;PMS7003;6186;52.022;4.692;2022-10-18T00:51:39;7.00;6.00;3.00
12246;PMS7003;6186;52.022;4.692;2022-10-18T00:54:05;8.60;7.60;4.00
12246;PMS7003;6186;52.022;4.692;2022-10-18T00:56:30;6.75;6.00;3.00
12246;PMS7003;6186;52.022;4.692;2022-10-18T00:58:57;7.00;6.40;4.00
12246;PMS7003;6186;52.022;4.692;2022-10-18T01:01:22;5.75;5.75;3.25
12246;PMS7003;6186;52.022;4.692;2022-10-18T01:03:48;10.00;7.00;4.00
12246;PMS7003;6186;52.022;4.692;2022-10-18T01:06:14;6.60;6.00;3.00
12246;PMS7003;6186;52.022;4.692;2022-10-18T01:16:57;6.40;5.40;3.00
12246;PMS7003;6186;52.022;4.692;2022-10-18T01:19:30;7.00;6.80;3.40
12246;PMS7003;6186;52.022;4.692;2022-10-18T01:22:05;6.40;6.00;3.00
12246;PMS7003;6186;52.022;4.692;2022-10-18T01:24:37;5.40;5.00;3.00
12246;PMS7003;6186;52.022;4.692;2022-10-18T01:27:17;5.00;5.00;2.00
12246;PMS7003;6186;52.022;4.692;2022-10-18T01:30:02;5.00;5.00;3.00
12246;PMS7003;6186;52.022;4.692;2022-10-18T01:32:33;6.00;6.00;2.20
12246;PMS7003;6186;52.022;4.692;2022-10-18T01:35:04;7.00;7.00;4.00
12246;PMS7003;6186;52.022;4.692;2022-10-18T01:37:31;6.40;6.40;3.00
12246;PMS7003;6186;52.022;4.692;2022-10-18T01:39:56;6.25;5.25;3.00
12246;PMS7003;6186;52.022;4.692;2022-10-18T01:42:23;6.00;6.00;3.00
12246;PMS7003;6186;52.022;4.692;2022-10-18T01:44:49;8.00;5.00;2.80
12246;PMS7003;6186;52.022;4.692;2022-10-18T01:47:16;7.40;5.40;3.00
12246;PMS7003;6186;52.022;4.692;2022-10-18T01:49:41;6.00;6.00;3.00
12246;PMS7003;6186;52.022;4.692;2022-10-18T01:52:08;6.50;6.00;3.00
12246;PMS7003;6186;52.022;4.692;2022-10-18T01:54:36;6.40;5.60;3.00
12246;PMS7003;6186;52.022;4.692;2022-10-18T02:02:31;5.00;5.00;2.00
12246;PMS7003;6186;52.022;4.692;2022-10-18T02:07:55;6.00;6.00;3.00
12246;PMS7003;6186;52.022;4.692;2022-10-18T02:13:02;4.00;4.00;2.00
12246;PMS7003;6186;52.022;4.692;2022-10-18T02:15:36;5.25;5.00;2.50
12246;PMS7003;6186;52.022;4.692;2022-10-18T02:18:04;5.20;4.60;2.20
12246;PMS7003;6186;52.022;4.692;2022-10-18T02:20:31;6.00;5.20;3.00
12246;PMS7003;6186;52.022;4.692;2022-10-18T02:22:57;4.60;4.60;3.00
12246;PMS7003;6186;52.022;4.692;2022-10-18T02:25:24;3.20;3.20;2.00
12246;PMS7003;6186;52.022;4.692;2022-10-18T02:27:51;4.20;4.20;2.00
12246;PMS7003;6186;52.022;4.692;2022-10-18T02:30:17;4.25;4.25;2.75
12246;PMS7003;6186;52.022;4.692;2022-10-18T02:32:47;6.60;5.80;2.80
12246;PMS7003;6186;52.022;4.692;2022-10-18T02:35:18;5.60;5.00;2.40
12246;PMS7003;6186;52.022;4.692;2022-10-18T02:37:46;6.00;6.00;3.00
12246;PMS7003;6186;52.022;4.692;2022-10-18T02:40:12;5.00;5.00;3.00
12246;PMS7003;6186;52.022;4.692;2022-10-18T02:42:39;5.00;4.00;2.00
12246;PMS7003;6186;52.022;4.692;2022-10-18T02:45:07;4.60;4.60;3.00
12246;PMS7003;6186;52.022;4.692;2022-10-18T02:47:32;6.00;5.00;3.00
12246;PMS7003;6186;52.022;4.692;2022-10-18T02:50:01;6.25;6.00;3.00
12246;PMS7003;6186;52.022;4.692;2022-10-18T02:52:26;5.80;5.20;3.00
12246;PMS7003;6186;52.022;4.692;2022-10-18T02:54:51;6.00;5.00;3.00
12246;PMS7003;6186;52.022;4.692;2022-10-18T02:57:16;5.00;5.00;3.00
12246;PMS7003;6186;52.022;4.692;2022-10-18T02:59:41;6.00;5.00;2.50
12246;PMS7003;6186;52.022;4.692;2022-10-18T03:02:07;5.00;4.75;2.25
12246;PMS7003;6186;52.022;4.692;2022-10-18T03:04:32;4.00;4.00;2.00
12246;PMS7003;6186;52.022;4.692;2022-10-18T03:06:57;5.25;5.00;2.00
12246;PMS7003;6186;52.022;4.692;2022-10-18T03:09:22;5.25;5.25;2.50
12246;PMS7003;6186;52.022;4.692;2022-10-18T03:11:47;4.00;4.00;2.00
12246;PMS7003;6186;52.022;4.692;2022-10-18T03:14:13;5.00;5.00;3.00
12246;PMS7003;6186;52.022;4.692;2022-10-18T03:16:38;4.50;4.25;2.00
12246;PMS7003;6186;52.022;4.692;2022-10-18T03:19:03;4.00;4.00;2.00
12246;PMS7003;6186;52.022;4.692;2022-10-18T03:21:28;4.00;4.00;2.00
12246;PMS7003;6186;52.022;4.692;2022-10-18T03:23:53;5.00;4.25;2.00
12246;PMS7003;6186;52.022;4.692;2022-10-18T03:26:19;4.25;4.00;2.00
12246;PMS7003;6186;52.022;4.692;2022-10-18T03:28:45;4.80;4.80;2.00
12246;PMS7003;6186;52.022;4.692;2022-10-18T03:31:13;4.20;4.00;2.00
12246;PMS7003;6186;52.022;4.692;2022-10-18T03:33:38;4.75;4.00;2.00
12246;PMS7003;6186;52.022;4.692;2022-10-18T03:36:03;5.25;4.75;2.00
12246;PMS7003;6186;52.022;4.692;2022-10-18T03:38:28;5.25;5.00;3.00
12246;PMS7003;6186;52.022;4.692;2022-10-18T03:40:54;5.00;4.75;2.00
12246;PMS7003;6186;52.022;4.692;2022-10-18T03:43:19;5.00;5.00;3.00
12246;PMS7003;6186;52.022;4.692;2022-10-18T03:45:44;6.00;5.50;3.00
12246;PMS7003;6186;52.022;4.692;2022-10-18T03:48:09;5.25;5.00;3.00
12246;PMS7003;6186;52.022;4.692;2022-10-18T03:50:34;4.50;4.50;2.50
12246;PMS7003;6186;52.022;4.692;2022-10-18T03:53:00;5.00;5.00;2.50
12246;PMS7003;6186;52.022;4.692;2022-10-18T03:55:25;5.00;5.00;3.00
12246;PMS7003;6186;52.022;4.692;2022-10-18T03:57:50;5.00;5.00;3.00
12246;PMS7003;6186;52.022;4.692;2022-10-18T04:00:15;7.00;6.00;3.00
12246;PMS7003;6186;52.022;4.692;2022-10-18T04:02:40;8.25;7.50;3.00
12246;PMS7003;6186;52.022;4.692;2022-10-18T04:05:06;6.00;6.00;3.00
12246;PMS7003;6186;52.022;4.692;2022-10-18T04:07:32;7.25;6.00;3.50
12246;PMS7003;6186;52.022;4.692;2022-10-18T04:09:57;5.00;5.00;2.75
12246;PMS7003;6186;52.022;4.692;2022-10-18T04:12:22;4.50;4.00;2.00
12246;PMS7003;6186;52.022;4.692;2022-10-18T04:14:47;5.50;5.00;2.00
12246;PMS7003;6186;52.022;4.692;2022-10-18T04:17:12;5.75;5.75;2.75
12246;PMS7003;6186;52.022;4.692;2022-10-18T04:19:38;5.75;5.00;2.25
12246;PMS7003;6186;52.022;4.692;2022-10-18T04:22:03;4.00;4.00;2.00
12246;PMS7003;6186;52.022;4.692;2022-10-18T04:24:28;6.00;5.25;3.00
12246;PMS7003;6186;52.022;4.692;2022-10-18T04:26:53;5.25;4.00;2.00
12246;PMS7003;6186;52.022;4.692;2022-10-18T04:29:18;5.00;5.00;3.00
12246;PMS7003;6186;52.022;4.692;2022-10-18T04:31:43;7.50;5.00;3.00
12246;PMS7003;6186;52.022;4.692;2022-10-18T04:34:09;7.00;5.75;3.00
12246;PMS7003;6186;52.022;4.692;2022-10-18T04:36:34;6.00;5.00;3.00
12246;PMS7003;6186;52.022;4.692;2022-10-18T04:38:59;6.25;5.25;3.00
12246;PMS7003;6186;52.022;4.692;2022-10-18T04:41:24;7.00;6.00;3.25
12246;PMS7003;6186;52.022;4.692;2022-10-18T04:43:50;6.75;6.00;3.25
12246;PMS7003;6186;52.022;4.692;2022-10-18T04:46:15;6.00;6.00;3.00
12246;PMS7003;6186;52.022;4.692;2022-10-18T04:48:40;6.50;5.75;3.00
12246;PMS7003;6186;52.022;4.692;2022-10-18T04:51:05;7.75;5.00;3.00
12246;PMS7003;6186;52.022;4.692;2022-10-18T04:53:30;5.50;5.00;3.00
12246;PMS7003;6186;52.022;4.692;2022-10-18T04:55:56;6.50;5.75;3.00
12246;PMS7003;6186;52.022;4.692;2022-10-18T04:58:21;4.75;4.75;3.00
12246;PMS7003;6186;52.022;4.692;2022-10-18T05:00:47;5.50;5.00;2.25
12246;PMS7003;6186;52.022;4.692;2022-10-18T05:03:12;6.25;5.00;2.75
12246;PMS7003;6186;52.022;4.692;2022-10-18T05:05:37;5.50;5.50;2.50
12246;PMS7003;6186;52.022;4.692;2022-10-18T05:08:03;5.00;4.75;3.00
12246;PMS7003;6186;52.022;4.692;2022-10-18T05:10:28;6.00;5.00;3.00
12246;PMS7003;6186;52.022;4.692;2022-10-18T05:12:53;5.00;5.00;3.00
12246;PMS7003;6186;52.022;4.692;2022-10-18T05:15:18;5.50;5.50;2.00
12246;PMS7003;6186;52.022;4.692;2022-10-18T05:17:44;4.50;4.00;2.00
12246;PMS7003;6186;52.022;4.692;2022-10-18T05:20:09;6.50;5.00;2.25
12246;PMS7003;6186;52.022;4.692;2022-10-18T05:22:34;6.75;6.00;2.25
12246;PMS7003;6186;52.022;4.692;2022-10-18T05:24:59;5.50;5.00;2.75
12246;PMS7003;6186;52.022;4.692;2022-10-18T05:27:24;5.00;4.50;2.50
12246;PMS7003;6186;52.022;4.692;2022-10-18T05:29:50;3.75;3.75;2.00
12246;PMS7003;6186;52.022;4.692;2022-10-18T05:32:15;4.00;4.00;2.00
12246;PMS7003;6186;52.022;4.692;2022-10-18T05:34:40;4.25;3.00;1.00
12246;PMS7003;6186;52.022;4.692;2022-10-18T05:37:05;3.75;3.75;1.00
12246;PMS7003;6186;52.022;4.692;2022-10-18T05:39:31;4.00;4.00;2.00
12246;PMS7003;6186;52.022;4.692;2022-10-18T05:41:56;5.75;4.00;2.00
12246;PMS7003;6186;52.022;4.692;2022-10-18T05:44:22;4.00;4.00;2.00
12246;PMS7003;6186;52.022;4.692;2022-10-18T05:46:47;5.00;4.50;2.00
12246;PMS7003;6186;52.022;4.692;2022-10-18T05:49:12;4.00;4.00;2.00
12246;PMS7003;6186;52.022;4.692;2022-10-18T05:51:37;4.25;4.25;2.50
12246;PMS7003;6186;52.022;4.692;2022-10-18T05:54:03;5.00;5.00;2.00
12246;PMS7003;6186;52.022;4.692;2022-10-18T05:56:28;5.00;4.50;2.00
12246;PMS7003;6186;52.022;4.692;2022-10-18T05:58:53;4.50;4.50;2.00
12246;PMS7003;6186;52.022;4.692;2022-10-18T06:01:18;4.00;4.00;2.00
12246;PMS7003;6186;52.022;4.692;2022-10-18T06:03:43;5.50;4.50;2.25
12246;PMS7003;6186;52.022;4.692;2022-10-18T06:06:09;4.00;4.00;2.00
12246;PMS7003;6186;52.022;4.692;2022-10-18T06:08:35;4.80;4.80;2.00
12246;PMS7003;6186;52.022;4.692;2022-10-18T06:11:11;4.00;4.00;2.00
12246;PMS7003;6186;52.022;4.692;2022-10-18T06:13:44;4.20;4.20;3.00
12246;PMS7003;6186;52.022;4.692;2022-10-18T06:16:10;5.00;5.00;3.00
12246;PMS7003;6186;52.022;4.692;2022-10-18T06:18:35;5.00;5.00;2.00
12246;PMS7003;6186;52.022;4.692;2022-10-18T06:21:00;5.00;4.75;2.25
12246;PMS7003;6186;52.022;4.692;2022-10-18T06:23:26;5.25;4.00;2.00
12246;PMS7003;6186;52.022;4.692;2022-10-18T06:25:52;5.20;4.20;2.00
12246;PMS7003;6186;52.022;4.692;2022-10-18T06:28:17;3.75;3.75;1.50
12246;PMS7003;6186;52.022;4.692;2022-10-18T06:30:42;3.75;3.75;2.00
12246;PMS7003;6186;52.022;4.692;2022-10-18T06:33:08;4.00;4.00;2.00
12246;PMS7003;6186;52.022;4.692;2022-10-18T06:35:35;5.60;5.00;3.00
12246;PMS7003;6186;52.022;4.692;2022-10-18T06:38:01;4.00;4.00;2.00
12246;PMS7003;6186;52.022;4.692;2022-10-18T06:40:26;5.50;4.50;2.00
12246;PMS7003;6186;52.022;4.692;2022-10-18T06:42:51;5.00;5.00;2.00
12246;PMS7003;6186;52.022;4.692;2022-10-18T06:45:16;4.00;4.00;2.50
12246;PMS7003;6186;52.022;4.692;2022-10-18T06:47:42;3.80;3.80;2.00
12246;PMS7003;6186;52.022;4.692;2022-10-18T06:50:07;4.25;4.00;2.00
12246;PMS7003;6186;52.022;4.692;2022-10-18T06:52:32;4.50;4.50;2.00
12246;PMS7003;6186;52.022;4.692;2022-10-18T06:54:58;5.00;5.00;2.00
12246;PMS7003;6186;52.022;4.692;2022-10-18T06:57:23;4.75;4.75;2.00
12246;PMS7003;6186;52.022;4.692;2022-10-18T06:59:48;5.00;4.25;2.00
12246;PMS7003;6186;52.022;4.692;2022-10-18T07:02:15;4.00;4.00;2.00
12246;PMS7003;6186;52.022;4.692;2022-10-18T07:04:41;3.40;3.40;1.80
12246;PMS7003;6186;52.022;4.692;2022-10-18T07:07:06;4.00;4.00;2.25
12246;PMS7003;6186;52.022;4.692;2022-10-18T07:09:31;4.50;4.00;2.00
12246;PMS7003;6186;52.022;4.692;2022-10-18T07:11:56;3.75;3.75;1.50
12246;PMS7003;6186;52.022;4.692;2022-10-18T07:14:22;4.00;4.00;2.00
12246;PMS7003;6186;52.022;4.692;2022-10-18T07:16:47;3.00;3.00;1.00
12246;PMS7003;6186;52.022;4.692;2022-10-18T07:19:12;5.00;4.25;2.00
12246;PMS7003;6186;52.022;4.692;2022-10-18T07:21:38;4.00;4.00;1.00
12246;PMS7003;6186;52.022;4.692;2022-10-18T07:24:04;5.00;4.00;2.00
12246;PMS7003;6186;52.022;4.692;2022-10-18T07:26:30;4.00;3.75;2.00
12246;PMS7003;6186;52.022;4.692;2022-10-18T07:29:00;5.00;4.00;2.00
12246;PMS7003;6186;52.022;4.692;2022-10-18T07:31:26;4.00;3.60;1.60
12246;PMS7003;6186;52.022;4.692;2022-10-18T07:33:51;2.75;2.75;1.00
12246;PMS7003;6186;52.022;4.692;2022-10-18T07:36:17;3.50;3.50;1.00
12246;PMS7003;6186;52.022;4.692;2022-10-18T07:38:42;3.00;3.00;1.00
12246;PMS7003;6186;52.022;4.692;2022-10-18T07:41:09;3.20;3.00;1.00
12246;PMS7003;6186;52.022;4.692;2022-10-18T07:43:34;3.00;3.00;1.00
12246;PMS7003;6186;52.022;4.692;2022-10-18T07:46:00;2.00;2.00;1.00
12246;PMS7003;6186;52.022;4.692;2022-10-18T07:48:26;3.60;3.00;1.00
12246;PMS7003;6186;52.022;4.692;2022-10-18T07:50:52;3.75;3.00;1.00
12246;PMS7003;6186;52.022;4.692;2022-10-18T07:53:17;3.00;3.00;1.00
12246;PMS7003;6186;52.022;4.692;2022-10-18T07:55:42;3.00;2.00;1.00
12246;PMS7003;6186;52.022;4.692;2022-10-18T07:58:08;3.00;2.80;1.00
12246;PMS7003;6186;52.022;4.692;2022-10-18T08:00:34;3.00;3.00;1.00
12246;PMS7003;6186;52.022;4.692;2022-10-18T08:02:59;2.00;2.00;0.75
12246;PMS7003;6186;52.022;4.692;2022-10-18T08:05:24;3.00;3.00;0.00
12246;PMS7003;6186;52.022;4.692;2022-10-18T08:07:50;2.00;2.00;0.00
12246;PMS7003;6186;52.022;4.692;2022-10-18T08:10:16;1.25;1.25;0.00
12246;PMS7003;6186;52.022;4.692;2022-10-18T08:12:41;2.00;2.00;0.00
12246;PMS7003;6186;52.022;4.692;2022-10-18T08:15:06;3.00;2.00;0.50
12246;PMS7003;6186;52.022;4.692;2022-10-18T08:17:32;1.00;1.00;0.00
12246;PMS7003;6186;52.022;4.692;2022-10-18T08:19:57;2.00;2.00;0.75
12246;PMS7003;6186;52.022;4.692;2022-10-18T08:22:22;2.00;2.00;0.00
12246;PMS7003;6186;52.022;4.692;2022-10-18T08:24:47;2.00;2.00;0.00
12246;PMS7003;6186;52.022;4.692;2022-10-18T08:27:13;1.00;1.00;0.00
12246;PMS7003;6186;52.022;4.692;2022-10-18T08:29:38;2.00;2.00;0.50
12246;PMS7003;6186;52.022;4.692;2022-10-18T08:32:04;1.00;1.00;0.00
12246;PMS7003;6186;52.022;4.692;2022-10-18T08:34:29;1.75;1.75;0.00
12246;PMS7003;6186;52.022;4.692;2022-10-18T08:36:54;2.00;2.00;0.00
12246;PMS7003;6186;52.022;4.692;2022-10-18T08:39:19;1.00;1.00;0.00
12246;PMS7003;6186;52.022;4.692;2022-10-18T08:46:47;2.00;2.00;0.40
12246;PMS7003;6186;52.022;4.692;2022-10-18T08:49:25;2.80;2.00;0.00
12246;PMS7003;6186;52.022;4.692;2022-10-18T08:51:53;3.00;2.00;0.80
12246;PMS7003;6186;52.022;4.692;2022-10-18T08:57:16;2.00;2.00;0.00
12246;PMS7003;6186;52.022;4.692;2022-10-18T08:59:42;1.75;1.75;0.00
12246;PMS7003;6186;52.022;4.692;2022-10-18T09:02:14;1.20;1.20;0.00
12246;PMS7003;6186;52.022;4.692;2022-10-18T09:04:48;2.00;2.00;0.00
12246;PMS7003;6186;52.022;4.692;2022-10-18T09:10:18;1.00;1.00;0.00
12246;PMS7003;6186;52.022;4.692;2022-10-18T09:13:07;2.00;2.00;0.00
12246;PMS7003;6186;52.022;4.692;2022-10-18T09:25:43;1.00;1.00;0.00
12246;PMS7003;6186;52.022;4.692;2022-10-18T09:30:37;1.00;1.00;0.00
12246;PMS7003;6186;52.022;4.692;2022-10-18T09:33:11;2.00;1.00;0.00
12246;PMS7003;6186;52.022;4.692;2022-10-18T09:35:58;2.40;2.00;0.00
12246;PMS7003;6186;52.022;4.692;2022-10-18T09:38:26;2.00;2.00;0.00
12246;PMS7003;6186;52.022;4.692;2022-10-18T09:43:21;1.00;1.00;0.00
12246;PMS7003;6186;52.022;4.692;2022-10-18T09:45:47;1.80;1.80;0.00
12246;PMS7003;6186;52.022;4.692;2022-10-18T09:48:25;1.00;1.00;0.00
12246;PMS7003;6186;52.022;4.692;2022-10-18T09:53:39;1.00;1.00;0.00
12246;PMS7003;6186;52.022;4.692;2022-10-18T09:56:11;1.00;1.00;0.00
12246;PMS7003;6186;52.022;4.692;2022-10-18T09:58:42;1.60;1.00;0.00
12246;PMS7003;6186;52.022;4.692;2022-10-18T10:01:09;1.20;1.00;0.00
12246;PMS7003;6186;52.022;4.692;2022-10-18T10:03:35;1.00;1.00;0.00
12246;PMS7003;6186;52.022;4.692;2022-10-18T10:06:22;1.00;1.00;0.00
12246;PMS7003;6186;52.022;4.692;2022-10-18T10:13:51;2.00;1.80;0.00
12246;PMS7003;6186;52.022;4.692;2022-10-18T10:16:20;1.60;1.60;0.00
12246;PMS7003;6186;52.022;4.692;2022-10-18T10:18:45;1.00;1.00;0.00
12246;PMS7003;6186;52.022;4.692;2022-10-18T10:21:16;2.00;2.00;0.00
12246;PMS7003;6186;52.022;4.692;2022-10-18T10:23:48;2.75;2.00;0.00
12246;PMS7003;6186;52.022;4.692;2022-10-18T10:26:31;2.00;2.00;0.00
12246;PMS7003;6186;52.022;4.692;2022-10-18T10:28:57;3.00;2.00;0.00
12246;PMS7003;6186;52.022;4.692;2022-10-18T10:33:49;2.00;1.00;0.00
12246;PMS7003;6186;52.022;4.692;2022-10-18T10:36:21;1.00;1.00;0.00
12246;PMS7003;6186;52.022;4.692;2022-10-18T10:39:00;1.00;1.00;0.00
12246;PMS7003;6186;52.022;4.692;2022-10-18T10:41:26;2.00;2.00;0.00
12246;PMS7003;6186;52.022;4.692;2022-10-18T10:43:51;1.75;1.50;0.00
12246;PMS7003;6186;52.022;4.692;2022-10-18T10:46:17;1.50;1.00;0.00
12246;PMS7003;6186;52.022;4.692;2022-10-18T10:48:48;2.00;2.00;0.00
12246;PMS7003;6186;52.022;4.692;2022-10-18T10:51:15;2.20;2.00;0.00
12246;PMS7003;6186;52.022;4.692;2022-10-18T10:56:14;1.20;1.00;0.00
12246;PMS7003;6186;52.022;4.692;2022-10-18T10:58:40;0.40;0.40;0.00
12246;PMS7003;6186;52.022;4.692;2022-10-18T11:01:19;0.25;0.25;0.00
12246;PMS7003;6186;52.022;4.692;2022-10-18T11:03:45;2.60;1.40;0.00
12246;PMS7003;6186;52.022;4.692;2022-10-18T11:06:20;0.40;0.40;0.00
12246;PMS7003;6186;52.022;4.692;2022-10-18T11:08:50;1.00;1.00;0.00
12246;PMS7003;6186;52.022;4.692;2022-10-18T11:11:21;1.00;1.00;0.00
12246;PMS7003;6186;52.022;4.692;2022-10-18T11:16:28;0.80;0.80;0.00
12246;PMS7003;6186;52.022;4.692;2022-10-18T11:18:56;0.80;0.40;0.00
12246;PMS7003;6186;52.022;4.692;2022-10-18T11:21:24;0.40;0.40;0.00
12246;PMS7003;6186;52.022;4.692;2022-10-18T11:23:51;0.40;0.40;0.00
12246;PMS7003;6186;52.022;4.692;2022-10-18T11:29:06;1.40;1.40;0.00
12246;PMS7003;6186;52.022;4.692;2022-10-18T11:31:44;1.40;1.20;0.00
12246;PMS7003;6186;52.022;4.692;2022-10-18T11:42:19;1.00;1.00;0.00
12246;PMS7003;6186;52.022;4.692;2022-10-18T11:44:54;1.20;1.20;0.00
12246;PMS7003;6186;52.022;4.692;2022-10-18T11:47:25;0.40;0.40;0.00
12246;PMS7003;6186;52.022;4.692;2022-10-18T11:52:37;1.60;1.20;0.00
12246;PMS7003;6186;52.022;4.692;2022-10-18T11:55:24;0.60;0.60;0.00
12246;PMS7003;6186;52.022;4.692;2022-10-18T12:00:34;1.00;0.20;0.00
12246;PMS7003;6186;52.022;4.692;2022-10-18T12:05:44;0.40;0.20;0.00
12246;PMS7003;6186;52.022;4.692;2022-10-18T12:08:12;0.25;0.25;0.00
12246;PMS7003;6186;52.022;4.692;2022-10-18T12:10:39;0.20;0.20;0.00
12246;PMS7003;6186;52.022;4.692;2022-10-18T12:13:06;0.60;0.20;0.00
12246;PMS7003;6186;52.022;4.692;2022-10-18T12:15:36;1.00;0.40;0.00
12246;PMS7003;6186;52.022;4.692;2022-10-18T12:18:04;0.20;0.20;0.00
12246;PMS7003;6186;52.022;4.692;2022-10-18T12:20:31;1.00;0.40;0.00
12246;PMS7003;6186;52.022;4.692;2022-10-18T12:23:04;1.00;0.20;0.00
12246;PMS7003;6186;52.022;4.692;2022-10-18T12:25:32;1.25;1.00;0.00
12246;PMS7003;6186;52.022;4.692;2022-10-18T12:28:02;1.00;0.25;0.00
12246;PMS7003;6186;52.022;4.692;2022-10-18T12:30:36;0.60;0.20;0.00
12246;PMS7003;6186;52.022;4.692;2022-10-18T12:33:11;1.50;0.25;0.00
12246;PMS7003;6186;52.022;4.692;2022-10-18T12:38:25;0.20;0.20;0.00
12246;PMS7003;6186;52.022;4.692;2022-10-18T12:40:52;0.25;0.25;0.00
12246;PMS7003;6186;52.022;4.692;2022-10-18T12:43:22;0.25;0.25;0.00
12246;PMS7003;6186;52.022;4.692;2022-10-18T12:45:55;0.25;0.25;0.00
12246;PMS7003;6186;52.022;4.692;2022-10-18T12:48:37;0.25;0.25;0.00
12246;PMS7003;6186;52.022;4.692;2022-10-18T12:51:05;0.25;0.25;0.00
12246;PMS7003;6186;52.022;4.692;2022-10-18T12:53:30;0.25;0.25;0.00
12246;PMS7003;6186;52.022;4.692;2022-10-18T12:56:31;0.50;0.25;0.00
12246;PMS7003;6186;52.022;4.692;2022-10-18T12:58:41;1.00;1.00;0.00
12246;PMS7003;6186;52.022;4.692;2022-10-18T13:01:07;0.50;0.00;0.00
12246;PMS7003;6186;52.022;4.692;2022-10-18T13:03:39;0.00;0.00;0.00
12246;PMS7003;6186;52.022;4.692;2022-10-18T13:06:05;0.20;0.20;0.00
12246;PMS7003;6186;52.022;4.692;2022-10-18T13:18:57;0.20;0.20;0.00
12246;PMS7003;6186;52.022;4.692;2022-10-18T13:24:17;0.25;0.25;0.00
12246;PMS7003;6186;52.022;4.692;2022-10-18T13:26:51;0.20;0.20;0.00
12246;PMS7003;6186;52.022;4.692;2022-10-18T13:29:29;0.25;0.25;0.00
12246;PMS7003;6186;52.022;4.692;2022-10-18T13:37:17;0.67;0.67;0.00
12246;PMS7003;6186;52.022;4.692;2022-10-18T13:39:44;0.25;0.25;0.00
12246;PMS7003;6186;52.022;4.692;2022-10-18T13:42:22;0.00;0.00;0.00
12246;PMS7003;6186;52.022;4.692;2022-10-18T13:44:51;0.20;0.20;0.00
12246;PMS7003;6186;52.022;4.692;2022-10-18T13:47:36;0.00;0.00;0.00
12246;PMS7003;6186;52.022;4.692;2022-10-18T14:07:49;0.40;0.40;0.00
12246;PMS7003;6186;52.022;4.692;2022-10-18T14:10:19;1.00;1.00;0.00
12246;PMS7003;6186;52.022;4.692;2022-10-18T14:12:46;1.00;1.00;0.00
12246;PMS7003;6186;52.022;4.692;2022-10-18T14:15:17;1.80;1.80;0.00
12246;PMS7003;6186;52.022;4.692;2022-10-18T14:17:51;1.00;1.00;0.00
12246;PMS7003;6186;52.022;4.692;2022-10-18T14:22:45;1.00;1.00;0.00
12246;PMS7003;6186;52.022;4.692;2022-10-18T14:25:45;1.00;1.00;0.00
12246;PMS7003;6186;52.022;4.692;2022-10-18T14:30:28;1.00;1.00;0.00
12246;PMS7003;6186;52.022;4.692;2022-10-18T14:32:53;2.00;2.00;0.00
12246;PMS7003;6186;52.022;4.692;2022-10-18T14:35:19;1.00;1.00;0.00
12246;PMS7003;6186;52.022;4.692;2022-10-18T14:37:46;1.00;1.00;0.00
12246;PMS7003;6186;52.022;4.692;2022-10-18T14:40:29;1.00;1.00;0.00
12246;PMS7003;6186;52.022;4.692;2022-10-18T14:42:55;1.00;1.00;0.00
12246;PMS7003;6186;52.022;4.692;2022-10-18T14:45:21;1.00;1.00;0.00
12246;PMS7003;6186;52.022;4.692;2022-10-18T14:47:47;1.00;1.00;0.00
12246;PMS7003;6186;52.022;4.692;2022-10-18T14:50:22;1.00;1.00;0.00
12246;PMS7003;6186;52.022;4.692;2022-10-18T14:52:48;1.00;1.00;0.00
12246;PMS7003;6186;52.022;4.692;2022-10-18T14:55:31;1.00;1.00;0.00
12246;PMS7003;6186;52.022;4.692;2022-10-18T14:57:57;2.00;1.60;0.00
12246;PMS7003;6186;52.022;4.692;2022-10-18T15:00:24;2.00;1.00;0.00
12246;PMS7003;6186;52.022;4.692;2022-10-18T15:02:52;2.00;1.00;0.00
12246;PMS7003;6186;52.022;4.692;2022-10-18T15:05:19;1.00;1.00;0.00
12246;PMS7003;6186;52.022;4.692;2022-10-18T15:07:45;1.60;1.60;0.00
12246;PMS7003;6186;52.022;4.692;2022-10-18T15:10:32;1.75;1.00;0.00
12246;PMS7003;6186;52.022;4.692;2022-10-18T15:12:56;2.00;2.00;0.00
12246;PMS7003;6186;52.022;4.692;2022-10-18T15:15:26;1.00;1.00;0.00
12246;PMS7003;6186;52.022;4.692;2022-10-18T15:17:52;1.00;1.00;0.00
12246;PMS7003;6186;52.022;4.692;2022-10-18T15:20:22;1.00;1.00;0.00
12246;PMS7003;6186;52.022;4.692;2022-10-18T15:22:49;1.40;1.40;0.00
12246;PMS7003;6186;52.022;4.692;2022-10-18T15:25:16;1.50;1.50;0.00
12246;PMS7003;6186;52.022;4.692;2022-10-18T15:27:42;1.00;1.00;0.00
12246;PMS7003;6186;52.022;4.692;2022-10-18T15:32:46;2.00;2.00;0.00
12246;PMS7003;6186;52.022;4.692;2022-10-18T15:35:15;1.00;1.00;0.00
12246;PMS7003;6186;52.022;4.692;2022-10-18T15:37:43;1.00;1.00;0.00
12246;PMS7003;6186;52.022;4.692;2022-10-18T15:42:43;2.00;1.60;0.00
12246;PMS7003;6186;52.022;4.692;2022-10-18T15:50:38;1.00;1.00;0.00
12246;PMS7003;6186;52.022;4.692;2022-10-18T16:00:42;1.40;1.40;0.00
12246;PMS7003;6186;52.022;4.692;2022-10-18T16:03:08;0.80;0.80;0.00
12246;PMS7003;6186;52.022;4.692;2022-10-18T16:05:34;0.25;0.25;0.00
12246;PMS7003;6186;52.022;4.692;2022-10-18T16:07:59;1.00;1.00;0.00
12246;PMS7003;6186;52.022;4.692;2022-10-18T16:10:24;0.25;0.25;0.00
12246;PMS7003;6186;52.022;4.692;2022-10-18T16:12:50;1.50;0.50;0.00
12246;PMS7003;6186;52.022;4.692;2022-10-18T16:15:15;0.25;0.25;0.00
12246;PMS7003;6186;52.022;4.692;2022-10-18T16:17:40;0.25;0.25;0.00
12246;PMS7003;6186;52.022;4.692;2022-10-18T16:20:06;1.25;1.25;0.00
12246;PMS7003;6186;52.022;4.692;2022-10-18T16:22:31;1.00;1.00;0.00
12246;PMS7003;6186;52.022;4.692;2022-10-18T16:24:56;0.50;0.25;0.00
12246;PMS7003;6186;52.022;4.692;2022-10-18T16:27:21;2.00;1.75;0.00
12246;PMS7003;6186;52.022;4.692;2022-10-18T16:29:47;1.00;1.00;0.00
12246;PMS7003;6186;52.022;4.692;2022-10-18T16:32:12;0.75;0.75;0.00
12246;PMS7003;6186;52.022;4.692;2022-10-18T16:34:37;1.00;1.00;0.00
12246;PMS7003;6186;52.022;4.692;2022-10-18T16:37:02;1.25;1.25;0.00
12246;PMS7003;6186;52.022;4.692;2022-10-18T16:39:28;1.00;1.00;0.00
12246;PMS7003;6186;52.022;4.692;2022-10-18T16:41:58;1.60;1.00;0.00
12246;PMS7003;6186;52.022;4.692;2022-10-18T16:44:23;1.75;1.75;0.00
12246;PMS7003;6186;52.022;4.692;2022-10-18T16:46:49;2.00;1.00;0.00
12246;PMS7003;6186;52.022;4.692;2022-10-18T16:49:18;2.00;2.00;0.00
12246;PMS7003;6186;52.022;4.692;2022-10-18T16:51:43;1.60;1.60;0.00
12246;PMS7003;6186;52.022;4.692;2022-10-18T16:54:09;1.25;1.25;0.00
12246;PMS7003;6186;52.022;4.692;2022-10-18T16:56:34;1.75;1.00;0.00
12246;PMS7003;6186;52.022;4.692;2022-10-18T16:58:59;1.75;1.25;0.00
12246;PMS7003;6186;52.022;4.692;2022-10-18T17:01:24;1.00;1.00;0.00